createdAt,value
2022-10-13T00:00:47.960Z,9.48
2022-10-13T00:01:29.952Z,9.52
2022-10-13T00:02:03.955Z,9.43
2022-10-13T00:02:37.612Z,9.44
2022-10-13T00:03:18.909Z,9.43
2022-10-13T00:03:53.937Z,9.32
2022-10-13T00:04:27.700Z,9.25
2022-10-13T00:05:08.874Z,9.30
2022-10-13T00:05:48.982Z,9.31
2022-10-13T00:06:25.736Z,9.44
2022-10-13T00:07:05.913Z,9.37
2022-10-13T00:07:39.954Z,9.35
2022-10-13T00:08:18.833Z,9.41
2022-10-13T00:09:00.877Z,9.45
2022-10-13T00:09:34.944Z,9.45
2022-10-13T00:10:08.904Z,9.23
2022-10-13T00:10:48.938Z,9.24
2022-10-13T00:11:30.208Z,9.23
2022-10-13T00:12:03.736Z,9.36
2022-10-13T00:12:45.910Z,9.41
2022-10-13T00:13:19.988Z,9.34
2022-10-13T00:13:57.925Z,9.39
2022-10-13T00:14:38.860Z,9.35
2022-10-13T00:15:14.969Z,9.36
2022-10-13T00:15:49.102Z,9.32
2022-10-13T00:16:30.061Z,9.40
2022-10-13T00:17:03.968Z,9.39
2022-10-13T00:17:37.662Z,9.43
2022-10-13T00:18:18.888Z,9.32
2022-10-13T00:18:52.975Z,9.36
2022-10-13T00:19:27.736Z,9.38
2022-10-13T00:20:08.874Z,9.25
2022-10-13T00:20:47.932Z,9.28
2022-10-13T00:21:26.386Z,9.29
2022-10-13T00:22:06.859Z,9.28
2022-10-13T00:22:40.933Z,9.24
2022-10-13T00:23:15.633Z,9.39
2022-10-13T00:23:57.877Z,9.41
2022-10-13T00:24:31.970Z,9.35
2022-10-13T00:25:06.222Z,9.40
2022-10-13T00:25:50.860Z,9.31
2022-10-13T00:26:25.960Z,9.28
2022-10-13T00:26:59.594Z,9.25
2022-10-13T00:27:39.862Z,9.31
2022-10-13T00:28:13.995Z,9.24
2022-10-13T00:28:52.250Z,9.31
2022-10-13T00:29:33.865Z,9.32
2022-10-13T00:30:07.908Z,9.35
2022-10-13T00:30:42.077Z,9.35
2022-10-13T00:31:36.824Z,9.25
2022-10-13T00:32:10.941Z,9.24
2022-10-13T00:32:44.572Z,9.27
2022-10-13T00:33:24.861Z,9.21
2022-10-13T00:33:58.971Z,9.19
2022-10-13T00:34:32.561Z,9.27
2022-10-13T00:35:13.878Z,9.20
2022-10-13T00:35:50.924Z,9.21
2022-10-13T00:36:25.361Z,9.28
2022-10-13T00:37:04.845Z,9.22
2022-10-13T00:37:38.923Z,9.27
2022-10-13T00:38:13.218Z,9.21
2022-10-13T00:38:53.854Z,9.27
2022-10-13T00:39:27.952Z,9.23
2022-10-13T00:40:01.698Z,9.12
2022-10-13T00:41:00.864Z,9.28
2022-10-13T00:41:35.154Z,9.25
2022-10-13T00:42:14.801Z,9.21
2022-10-13T00:42:54.832Z,9.16
2022-10-13T00:43:37.965Z,9.28
2022-10-13T00:45:04.322Z,9.27
2022-10-13T00:45:44.836Z,9.29
2022-10-13T00:46:25.874Z,9.18
2022-10-13T00:46:59.566Z,9.27
2022-10-13T00:47:58.854Z,9.10
2022-10-13T00:48:32.563Z,9.18
2022-10-13T00:49:26.828Z,9.17
2022-10-13T00:50:01.447Z,9.21
2022-10-13T00:50:55.812Z,9.20
2022-10-13T00:51:39.941Z,9.22
2022-10-13T00:52:21.120Z,9.17
2022-10-13T00:53:02.859Z,9.24
2022-10-13T00:53:44.928Z,9.26
2022-10-13T00:54:28.816Z,9.17
2022-10-13T00:55:10.890Z,9.26
2022-10-13T00:55:52.826Z,9.22
2022-10-13T00:56:34.892Z,9.15
2022-10-13T00:57:15.836Z,9.15
2022-10-13T00:58:02.694Z,9.23
2022-10-13T00:58:45.828Z,9.08
2022-10-13T00:59:31.940Z,9.09
2022-10-13T01:00:12.838Z,9.05
2022-10-13T01:00:56.925Z,8.96
2022-10-13T01:01:38.822Z,8.83
2022-10-13T01:02:25.840Z,8.91
2022-10-13T01:02:59.632Z,8.93
2022-10-13T01:03:47.816Z,9.01
2022-10-13T01:04:25.441Z,9.03
2022-10-13T01:05:13.828Z,9.01
2022-10-13T01:05:48.921Z,8.97
2022-10-13T01:06:35.820Z,9.04
2022-10-13T01:07:09.704Z,9.07
2022-10-13T01:07:50.834Z,9.12
2022-10-13T01:08:27.195Z,9.05
2022-10-13T01:09:01.528Z,9.12
2022-10-13T01:09:44.806Z,9.02
2022-10-13T01:10:24.844Z,9.11
2022-10-13T01:11:20.238Z,9.14
2022-10-13T01:12:28.816Z,9.06
2022-10-13T01:13:32.834Z,9.05
2022-10-13T01:14:06.389Z,9.11
2022-10-13T01:15:09.796Z,9.05
2022-10-13T01:16:00.305Z,9.05
2022-10-13T01:16:56.801Z,9.12
2022-10-13T01:18:05.765Z,9.12
2022-10-13T01:19:07.837Z,9.09
2022-10-13T01:20:06.313Z,9.08
2022-10-13T01:21:11.805Z,9.10
2022-10-13T01:22:14.250Z,9.09
2022-10-13T01:23:23.789Z,9.12
2022-10-13T01:24:17.829Z,9.13
2022-10-13T01:25:42.880Z,9.03
2022-10-13T01:27:12.781Z,8.93
2022-10-13T01:28:40.893Z,9.08
2022-10-13T01:29:34.809Z,9.11
2022-10-13T01:30:25.901Z,9.13
2022-10-13T01:31:18.839Z,9.12
2022-10-13T01:32:26.924Z,9.03
2022-10-13T01:33:30.792Z,8.96
2022-10-13T01:34:27.844Z,8.99
2022-10-13T01:35:24.809Z,9.02
2022-10-13T01:36:48.884Z,9.10
2022-10-13T01:37:55.798Z,9.08
2022-10-13T01:38:54.913Z,9.10
2022-10-13T01:40:30.813Z,9.12
2022-10-13T01:41:37.913Z,9.06
2022-10-13T01:42:33.766Z,8.96
2022-10-13T01:43:24.841Z,8.98
2022-10-13T01:44:24.789Z,9.04
2022-10-13T01:45:07.873Z,8.98
2022-10-13T01:46:07.791Z,9.02
2022-10-13T01:46:49.843Z,9.01
2022-10-13T01:47:30.764Z,9.01
2022-10-13T01:48:12.844Z,8.90
2022-10-13T01:48:52.769Z,8.91
2022-10-13T01:49:37.834Z,8.96
2022-10-13T01:50:17.778Z,9.01
2022-10-13T01:51:00.003Z,9.04
2022-10-13T01:51:40.902Z,8.99
2022-10-13T01:52:24.879Z,9.05
2022-10-13T01:53:07.766Z,9.05
2022-10-13T01:53:49.859Z,9.03
2022-10-13T01:54:29.771Z,9.00
2022-10-13T01:55:18.835Z,8.92
2022-10-13T01:56:05.752Z,9.02
2022-10-13T01:56:52.809Z,8.94
2022-10-13T01:57:42.621Z,8.96
2022-10-13T01:58:29.762Z,8.84
2022-10-13T01:59:07.416Z,8.97
2022-10-13T01:59:54.754Z,8.89
2022-10-13T02:00:34.291Z,8.96
2022-10-13T02:02:11.781Z,8.90
2022-10-13T02:03:15.258Z,8.94
2022-10-13T02:04:12.792Z,8.72
2022-10-13T02:05:09.968Z,8.91
2022-10-13T02:06:03.752Z,8.87
2022-10-13T02:06:52.053Z,8.91
2022-10-13T02:07:53.779Z,8.87
2022-10-13T02:09:02.858Z,8.93
2022-10-13T02:09:54.813Z,8.88
2022-10-13T02:10:41.754Z,8.76
2022-10-13T02:11:27.824Z,8.81
2022-10-13T02:12:23.754Z,8.75
2022-10-13T02:13:17.785Z,8.89
2022-10-13T02:13:54.133Z,8.92
2022-10-13T02:14:43.733Z,8.89
2022-10-13T02:15:22.672Z,8.66
2022-10-13T02:16:12.759Z,8.72
2022-10-13T02:16:47.589Z,8.75
2022-10-13T02:17:35.758Z,8.80
2022-10-13T02:18:12.892Z,8.78
2022-10-13T02:18:53.769Z,8.81
2022-10-13T02:19:27.808Z,8.83
2022-10-13T02:20:01.555Z,8.76
2022-10-13T02:20:42.748Z,8.64
2022-10-13T02:21:16.797Z,8.76
2022-10-13T02:21:51.993Z,8.77
2022-10-13T02:22:37.763Z,8.62
2022-10-13T02:23:18.848Z,8.57
2022-10-13T02:23:52.477Z,8.54
2022-10-13T02:24:33.765Z,8.47
2022-10-13T02:25:07.801Z,8.55
2022-10-13T02:25:41.893Z,8.59
2022-10-13T02:26:22.730Z,8.52
2022-10-13T02:26:57.804Z,8.57
2022-10-13T02:27:31.469Z,8.60
2022-10-13T02:28:12.796Z,8.61
2022-10-13T02:28:46.831Z,8.60
2022-10-13T02:29:20.860Z,8.64
2022-10-13T02:30:03.760Z,8.56
2022-10-13T02:30:39.150Z,8.61
2022-10-13T02:31:13.461Z,8.52
2022-10-13T02:31:54.734Z,8.59
2022-10-13T02:32:29.795Z,8.51
2022-10-13T02:33:04.185Z,8.56
2022-10-13T02:33:43.712Z,8.47
2022-10-13T02:34:18.807Z,8.47
2022-10-13T02:34:52.477Z,8.46
2022-10-13T02:35:33.770Z,8.45
2022-10-13T02:36:07.789Z,8.46
2022-10-13T02:36:41.796Z,8.57
2022-10-13T02:37:21.728Z,8.52
2022-10-13T02:37:55.806Z,8.49
2022-10-13T02:38:29.432Z,8.49
2022-10-13T02:39:11.711Z,8.48
2022-10-13T02:39:45.801Z,8.55
2022-10-13T02:40:19.694Z,8.35
2022-10-13T02:41:01.741Z,8.39
2022-10-13T02:41:35.789Z,8.45
2022-10-13T02:42:09.570Z,8.44
2022-10-13T02:42:50.734Z,8.37
2022-10-13T02:43:24.817Z,8.34
2022-10-13T02:43:58.427Z,8.45
2022-10-13T02:44:39.710Z,8.42
2022-10-13T02:45:14.926Z,8.50
2022-10-13T02:45:48.420Z,8.37
2022-10-13T02:46:29.733Z,8.43
2022-10-13T02:47:03.773Z,8.48
2022-10-13T02:47:37.559Z,8.46
2022-10-13T02:48:17.707Z,8.37
2022-10-13T02:48:51.778Z,8.44
2022-10-13T02:49:25.453Z,8.40
2022-10-13T02:50:06.724Z,8.40
2022-10-13T02:50:40.810Z,8.41
2022-10-13T02:51:14.629Z,8.54
2022-10-13T02:51:55.806Z,8.40
2022-10-13T02:52:29.783Z,8.47
2022-10-13T02:53:03.469Z,8.43
2022-10-13T02:53:43.692Z,8.36
2022-10-13T02:54:17.778Z,8.34
2022-10-13T02:54:52.147Z,8.38
2022-10-13T02:55:31.708Z,8.32
2022-10-13T02:56:05.789Z,8.44
2022-10-13T02:56:39.462Z,8.28
2022-10-13T02:57:20.733Z,8.47
2022-10-13T02:57:54.773Z,8.38
2022-10-13T02:58:28.524Z,8.29
2022-10-13T02:59:08.697Z,8.37
2022-10-13T02:59:42.772Z,8.32
2022-10-13T03:00:17.096Z,8.36
2022-10-13T03:00:57.698Z,8.36
2022-10-13T03:01:31.797Z,8.39
2022-10-13T03:02:05.400Z,8.36
2022-10-13T03:02:46.733Z,8.33
2022-10-13T03:03:20.852Z,8.40
2022-10-13T03:03:54.441Z,8.35
2022-10-13T03:04:35.696Z,8.32
2022-10-13T03:05:09.764Z,8.37
2022-10-13T03:05:44.984Z,8.29
2022-10-13T03:06:25.693Z,8.21
2022-10-13T03:06:59.763Z,8.23
2022-10-13T03:07:33.417Z,8.25
2022-10-13T03:08:14.730Z,8.24
2022-10-13T03:08:48.789Z,8.33
2022-10-13T03:09:22.484Z,8.34
2022-10-13T03:10:02.710Z,8.25
2022-10-13T03:10:43.775Z,8.27
2022-10-13T03:11:23.697Z,8.30
2022-10-13T03:12:03.754Z,8.29
2022-10-13T03:12:43.691Z,8.30
2022-10-13T03:13:31.709Z,8.24
2022-10-13T03:14:05.453Z,8.27
2022-10-13T03:14:52.693Z,8.23
2022-10-13T03:15:26.447Z,8.30
2022-10-13T03:16:13.715Z,8.36
2022-10-13T03:16:47.402Z,8.28
2022-10-13T03:17:34.681Z,8.26
2022-10-13T03:18:08.401Z,8.19
2022-10-13T03:18:56.712Z,8.22
2022-10-13T03:19:30.707Z,8.23
2022-10-13T03:20:18.671Z,8.24
2022-10-13T03:20:58.279Z,8.22
2022-10-13T03:21:45.705Z,8.20
2022-10-13T03:22:19.629Z,8.29
2022-10-13T03:23:06.686Z,8.32
2022-10-13T03:23:40.475Z,8.25
2022-10-13T03:24:21.719Z,8.22
2022-10-13T03:24:55.795Z,8.20
2022-10-13T03:25:29.425Z,8.31
2022-10-13T03:26:10.678Z,8.28
2022-10-13T03:26:44.731Z,8.19
2022-10-13T03:27:18.454Z,8.23
2022-10-13T03:27:58.696Z,8.24
2022-10-13T03:28:32.889Z,8.22
2022-10-13T03:29:06.425Z,8.20
2022-10-13T03:29:47.723Z,8.15
2022-10-13T03:30:21.782Z,8.23
2022-10-13T03:31:07.160Z,8.20
2022-10-13T03:31:47.669Z,8.23
2022-10-13T03:32:22.238Z,8.19
2022-10-13T03:32:56.410Z,8.14
2022-10-13T03:33:37.662Z,8.24
2022-10-13T03:34:11.849Z,8.20
2022-10-13T03:34:45.385Z,8.11
2022-10-13T03:35:26.712Z,8.16
2022-10-13T03:36:01.692Z,8.07
2022-10-13T03:36:35.469Z,8.13
2022-10-13T03:37:16.685Z,8.15
2022-10-13T03:37:50.749Z,8.14
2022-10-13T03:38:24.399Z,8.19
2022-10-13T03:39:04.653Z,8.11
2022-10-13T03:39:38.721Z,8.10
2022-10-13T03:40:12.698Z,8.06
2022-10-13T03:40:53.700Z,8.17
2022-10-13T03:41:27.788Z,8.17
2022-10-13T03:42:01.381Z,8.12
2022-10-13T03:42:47.674Z,8.17
2022-10-13T03:43:21.726Z,7.97
2022-10-13T03:43:55.412Z,7.99
2022-10-13T03:44:35.645Z,8.00
2022-10-13T03:45:10.733Z,8.02
2022-10-13T03:45:44.398Z,8.05
2022-10-13T03:46:25.706Z,8.13
2022-10-13T03:46:59.877Z,8.21
2022-10-13T03:47:36.659Z,8.15
2022-10-13T03:48:16.666Z,8.19
2022-10-13T03:48:50.762Z,8.14
2022-10-13T03:49:24.625Z,8.13
2022-10-13T03:50:04.656Z,8.22
2022-10-13T03:50:38.727Z,8.20
2022-10-13T03:51:17.487Z,8.04
2022-10-13T03:51:58.741Z,8.13
2022-10-13T03:52:33.038Z,8.06
2022-10-13T03:53:08.128Z,8.03
2022-10-13T03:53:47.725Z,8.06
2022-10-13T03:54:21.780Z,8.09
2022-10-13T03:54:55.393Z,8.14
2022-10-13T03:55:35.649Z,8.14
2022-10-13T03:56:21.742Z,8.12
2022-10-13T03:57:02.669Z,8.14
2022-10-13T03:57:42.767Z,8.13
2022-10-13T03:58:23.643Z,8.03
2022-10-13T03:59:06.705Z,7.99
2022-10-13T03:59:50.663Z,7.99
2022-10-13T04:00:30.739Z,8.05
2022-10-13T04:01:12.634Z,8.08
2022-10-13T04:01:52.752Z,8.07
2022-10-13T04:02:33.862Z,8.01
2022-10-13T04:03:13.727Z,8.02
2022-10-13T04:03:54.623Z,7.97
2022-10-13T04:04:35.247Z,8.05
2022-10-13T04:05:16.644Z,8.01
2022-10-13T04:06:14.658Z,8.10
2022-10-13T04:07:08.665Z,8.11
2022-10-13T04:07:55.656Z,8.08
2022-10-13T04:08:29.777Z,8.10
2022-10-13T04:09:16.684Z,7.96
2022-10-13T04:09:50.701Z,8.02
2022-10-13T04:10:37.629Z,8.06
2022-10-13T04:11:15.796Z,8.06
2022-10-13T04:12:02.620Z,7.99
2022-10-13T04:12:36.884Z,8.02
2022-10-13T04:13:17.660Z,8.00
2022-10-13T04:13:58.833Z,8.04
2022-10-13T04:14:39.627Z,8.03
2022-10-13T04:15:19.700Z,8.02
2022-10-13T04:16:00.628Z,8.09
2022-10-13T04:16:40.811Z,7.98
2022-10-13T04:17:20.617Z,8.01
2022-10-13T04:18:00.694Z,7.99
2022-10-13T04:18:44.627Z,8.05
2022-10-13T04:19:25.740Z,8.01
2022-10-13T04:20:05.663Z,7.99
2022-10-13T04:20:46.935Z,8.01
2022-10-13T04:21:27.645Z,7.93
2022-10-13T04:22:07.693Z,7.92
2022-10-13T04:22:47.633Z,8.01
2022-10-13T04:23:27.692Z,8.02
2022-10-13T04:24:09.632Z,8.01
2022-10-13T04:24:49.752Z,8.03
2022-10-13T04:25:29.630Z,8.00
2022-10-13T04:26:11.673Z,7.98
2022-10-13T04:26:52.636Z,7.93
2022-10-13T04:27:32.701Z,7.95
2022-10-13T04:28:13.726Z,7.97
2022-10-13T04:28:56.701Z,7.97
2022-10-13T04:29:37.629Z,7.99
2022-10-13T04:30:18.689Z,7.94
2022-10-13T04:30:59.620Z,7.98
2022-10-13T04:31:42.620Z,8.01
2022-10-13T04:32:22.808Z,7.80
2022-10-13T04:33:02.771Z,7.90
2022-10-13T04:33:42.614Z,7.77
2022-10-13T04:34:22.701Z,7.65
2022-10-13T04:35:03.642Z,7.70
2022-10-13T04:35:48.692Z,7.71
2022-10-13T04:36:29.619Z,7.81
2022-10-13T04:37:09.668Z,7.80
2022-10-13T04:37:50.616Z,7.83
2022-10-13T04:38:30.695Z,7.85
2022-10-13T04:39:11.675Z,7.83
2022-10-13T04:39:51.705Z,7.85
2022-10-13T04:40:33.652Z,7.87
2022-10-13T04:41:15.735Z,7.85
2022-10-13T04:41:56.614Z,7.78
2022-10-13T04:42:36.708Z,7.86
2022-10-13T04:43:16.611Z,7.72
2022-10-13T04:43:58.247Z,7.82
2022-10-13T04:44:38.574Z,7.80
2022-10-13T04:45:18.705Z,7.79
2022-10-13T04:45:59.650Z,7.84
2022-10-13T04:46:39.723Z,7.81
2022-10-13T04:47:19.611Z,7.81
2022-10-13T04:47:59.694Z,7.75
2022-10-13T04:48:40.585Z,7.63
2022-10-13T04:49:20.708Z,7.73
2022-10-13T04:50:00.601Z,7.68
2022-10-13T04:50:40.681Z,7.68
2022-10-13T04:51:27.605Z,7.67
2022-10-13T04:52:07.697Z,7.61
2022-10-13T04:52:47.608Z,7.61
2022-10-13T04:53:29.324Z,7.69
2022-10-13T04:54:11.600Z,7.60
2022-10-13T04:54:51.666Z,7.73
2022-10-13T04:55:31.569Z,7.57
2022-10-13T04:56:15.673Z,7.70
2022-10-13T04:56:56.693Z,7.62
2022-10-13T04:57:36.663Z,7.70
2022-10-13T04:58:16.578Z,7.57
2022-10-13T04:58:56.719Z,7.70
2022-10-13T04:59:36.609Z,7.52
2022-10-13T05:00:17.718Z,7.68
2022-10-13T05:00:58.652Z,7.66
2022-10-13T05:01:39.730Z,7.71
2022-10-13T05:02:20.942Z,7.75
2022-10-13T05:03:01.645Z,7.76
2022-10-13T05:03:42.589Z,7.64
2022-10-13T05:04:22.689Z,7.77
2022-10-13T05:05:02.585Z,7.71
2022-10-13T05:05:43.175Z,7.59
2022-10-13T05:06:28.592Z,7.71
2022-10-13T05:07:24.059Z,7.55
2022-10-13T05:08:04.620Z,7.56
2022-10-13T05:08:44.661Z,7.61
2022-10-13T05:09:24.565Z,7.69
2022-10-13T05:10:04.712Z,7.69
2022-10-13T05:10:45.572Z,7.77
2022-10-13T05:11:26.613Z,7.69
2022-10-13T05:12:06.602Z,7.70
2022-10-13T05:12:46.674Z,7.70
2022-10-13T05:13:27.606Z,7.84
2022-10-13T05:14:08.677Z,7.85
2022-10-13T05:14:48.580Z,7.84
2022-10-13T05:15:28.701Z,7.85
2022-10-13T05:16:17.557Z,7.89
2022-10-13T05:16:57.755Z,7.83
2022-10-13T05:17:38.570Z,7.78
2022-10-13T05:18:18.670Z,7.76
2022-10-13T05:19:01.618Z,7.79
2022-10-13T05:19:41.648Z,7.80
2022-10-13T05:20:24.589Z,7.81
2022-10-13T05:21:14.642Z,7.76
2022-10-13T05:21:54.545Z,7.67
2022-10-13T05:22:35.761Z,7.73
2022-10-13T05:23:16.577Z,7.77
2022-10-13T05:23:57.661Z,7.75
2022-10-13T05:24:43.580Z,7.76
2022-10-13T05:25:24.688Z,7.65
2022-10-13T05:26:10.570Z,7.59
2022-10-13T05:26:50.637Z,7.61
2022-10-13T05:27:30.570Z,7.59
2022-10-13T05:28:12.708Z,7.53
2022-10-13T05:28:53.612Z,7.62
2022-10-13T05:29:33.632Z,7.67
2022-10-13T05:30:15.601Z,7.59
2022-10-13T05:30:55.633Z,7.65
2022-10-13T05:31:37.580Z,7.75
2022-10-13T05:32:17.947Z,7.64
2022-10-13T05:32:58.573Z,7.78
2022-10-13T05:33:38.704Z,7.77
2022-10-13T05:34:18.552Z,7.62
2022-10-13T05:34:58.666Z,7.70
2022-10-13T05:35:39.596Z,7.68
2022-10-13T05:36:34.696Z,7.83
2022-10-13T05:37:15.552Z,7.87
2022-10-13T05:37:55.665Z,7.76
2022-10-13T05:38:35.574Z,7.83
2022-10-13T05:39:16.641Z,7.69
2022-10-13T05:39:56.556Z,7.71
2022-10-13T05:40:36.672Z,7.67
2022-10-13T05:41:19.608Z,7.78
2022-10-13T05:41:59.603Z,7.68
2022-10-13T05:42:42.555Z,7.63
2022-10-13T05:43:22.610Z,7.72
2022-10-13T05:44:09.553Z,7.70
2022-10-13T05:44:49.697Z,7.71
2022-10-13T05:45:30.560Z,7.73
2022-10-13T05:46:11.652Z,7.77
2022-10-13T05:46:51.588Z,7.75
2022-10-13T05:47:31.636Z,7.86
2022-10-13T05:48:12.560Z,7.78
2022-10-13T05:48:52.611Z,7.88
2022-10-13T05:49:33.526Z,7.78
2022-10-13T05:50:14.612Z,7.73
2022-10-13T05:50:55.553Z,7.82
2022-10-13T05:51:59.598Z,7.87
2022-10-13T05:52:54.552Z,7.84
2022-10-13T05:53:55.446Z,7.94
2022-10-13T05:54:59.558Z,7.98
2022-10-13T05:55:53.587Z,7.98
2022-10-13T05:57:05.615Z,7.97
2022-10-13T05:58:03.541Z,7.98
2022-10-13T05:59:01.573Z,8.09
2022-10-13T06:00:15.535Z,8.07
2022-10-13T06:03:28.573Z,8.11
2022-10-13T06:04:05.619Z,8.14
2022-10-13T06:04:55.544Z,8.20
2022-10-13T06:05:32.767Z,8.16
2022-10-13T06:06:19.521Z,8.14
2022-10-13T06:06:54.654Z,8.19
2022-10-13T06:07:41.525Z,8.19
2022-10-13T06:08:16.585Z,8.22
2022-10-13T06:08:57.554Z,8.28
2022-10-13T06:09:42.625Z,8.27
2022-10-13T06:10:23.545Z,8.34
2022-10-13T06:11:03.628Z,8.28
2022-10-13T06:11:44.524Z,8.23
2022-10-13T06:12:24.584Z,8.23
2022-10-13T06:13:04.522Z,8.18
2022-10-13T06:13:44.625Z,8.19
2022-10-13T06:14:24.554Z,8.24
2022-10-13T06:15:04.611Z,8.26
2022-10-13T06:15:44.504Z,8.14
2022-10-13T06:16:24.624Z,8.27
2022-10-13T06:17:05.538Z,8.27
2022-10-13T06:17:46.601Z,8.22
2022-10-13T06:18:26.533Z,8.18
2022-10-13T06:19:06.632Z,8.24
2022-10-13T06:19:46.570Z,8.31
2022-10-13T06:20:27.480Z,8.28
2022-10-13T06:21:07.517Z,8.31
2022-10-13T06:21:48.710Z,8.27
2022-10-13T06:22:29.529Z,8.31
2022-10-13T06:23:09.599Z,8.40
2022-10-13T06:23:49.542Z,8.35
2022-10-13T06:24:29.954Z,8.30
2022-10-13T06:25:12.608Z,8.40
2022-10-13T06:25:59.699Z,8.47
2022-10-13T06:26:40.503Z,8.38
2022-10-13T06:27:20.616Z,8.25
2022-10-13T06:28:02.533Z,8.42
2022-10-13T06:28:46.281Z,8.40
2022-10-13T06:29:30.507Z,8.46
2022-10-13T06:30:11.720Z,8.49
2022-10-13T06:30:55.554Z,8.57
2022-10-13T06:31:35.589Z,8.61
2022-10-13T06:32:15.561Z,8.63
2022-10-13T06:32:56.095Z,8.66
2022-10-13T06:33:37.512Z,8.65
2022-10-13T06:34:17.572Z,8.67
2022-10-13T06:34:58.518Z,8.72
2022-10-13T06:35:38.629Z,8.74
2022-10-13T06:36:19.544Z,8.63
2022-10-13T06:36:59.648Z,8.80
2022-10-13T06:37:39.518Z,8.81
2022-10-13T06:38:19.687Z,8.85
2022-10-13T06:39:00.500Z,8.81
2022-10-13T06:39:40.578Z,8.89
2022-10-13T06:40:22.544Z,8.87
2022-10-13T06:41:11.129Z,8.83
2022-10-13T06:41:51.515Z,8.95
2022-10-13T06:42:34.789Z,8.93
2022-10-13T06:43:15.542Z,8.99
2022-10-13T06:43:56.595Z,9.02
2022-10-13T06:44:38.500Z,8.96
2022-10-13T06:45:19.711Z,9.03
2022-10-13T06:46:00.500Z,9.01
2022-10-13T06:46:40.596Z,9.10
2022-10-13T06:47:21.552Z,9.00
2022-10-13T06:48:02.829Z,9.10
2022-10-13T06:48:43.509Z,9.09
2022-10-13T06:49:23.725Z,9.08
2022-10-13T06:50:03.504Z,9.14
2022-10-13T06:50:43.688Z,9.14
2022-10-13T06:51:24.548Z,9.12
2022-10-13T06:52:04.597Z,9.16
2022-10-13T06:52:45.517Z,9.15
2022-10-13T06:53:25.581Z,9.22
2022-10-13T06:54:06.495Z,9.06
2022-10-13T06:54:46.800Z,9.22
2022-10-13T06:55:28.504Z,9.19
2022-10-13T06:56:11.590Z,9.23
2022-10-13T06:56:51.547Z,9.20
2022-10-13T06:57:31.664Z,9.19
2022-10-13T06:58:11.582Z,9.22
2022-10-13T06:58:51.607Z,9.23
2022-10-13T06:59:34.518Z,9.24
2022-10-13T07:00:16.717Z,9.16
2022-10-13T07:00:56.521Z,9.28
2022-10-13T07:01:40.623Z,9.32
2022-10-13T07:02:21.934Z,9.35
2022-10-13T07:03:02.604Z,9.32
2022-10-13T07:03:42.535Z,9.39
2022-10-13T07:04:23.098Z,9.35
2022-10-13T07:05:03.693Z,9.22
2022-10-13T07:05:44.620Z,9.30
2022-10-13T07:06:25.486Z,9.39
2022-10-13T07:07:05.674Z,9.37
2022-10-13T07:07:45.481Z,9.45
2022-10-13T07:08:27.571Z,9.48
2022-10-13T07:09:13.684Z,9.55
2022-10-13T07:09:53.618Z,9.57
2022-10-13T07:10:34.533Z,9.55
2022-10-13T07:11:20.738Z,9.67
2022-10-13T07:12:01.485Z,9.59
2022-10-13T07:12:41.875Z,9.69
2022-10-13T07:14:06.547Z,9.80
2022-10-13T07:14:47.512Z,9.83
2022-10-13T07:15:27.596Z,9.89
2022-10-13T07:16:12.492Z,9.90
2022-10-13T07:16:54.565Z,9.93
2022-10-13T07:17:34.488Z,9.96
2022-10-13T07:18:14.540Z,10.01
2022-10-13T07:18:55.450Z,9.92
2022-10-13T07:19:35.549Z,9.98
2022-10-13T07:20:16.521Z,10.02
2022-10-13T07:20:56.568Z,10.08
2022-10-13T07:21:36.470Z,10.15
2022-10-13T07:22:16.616Z,10.17
2022-10-13T07:22:59.872Z,10.22
2022-10-13T07:23:41.598Z,10.23
2022-10-13T07:24:21.513Z,10.24
2022-10-13T07:25:01.588Z,10.27
2022-10-13T07:25:42.469Z,10.28
2022-10-13T07:26:23.525Z,10.35
2022-10-13T07:27:07.670Z,10.40
2022-10-13T07:27:48.513Z,10.43
2022-10-13T07:28:32.514Z,10.42
2022-10-13T07:29:12.533Z,10.46
2022-10-13T07:29:52.445Z,10.38
2022-10-13T07:30:33.517Z,10.41
2022-10-13T07:31:24.467Z,10.51
2022-10-13T07:32:04.617Z,10.55
2022-10-13T07:32:48.443Z,10.53
2022-10-13T07:33:28.522Z,10.57
2022-10-13T07:34:11.416Z,10.59
2022-10-13T07:34:51.522Z,10.61
2022-10-13T07:35:32.440Z,10.67
2022-10-13T07:36:13.542Z,10.72
2022-10-13T07:36:53.509Z,10.67
2022-10-13T07:37:33.537Z,10.66
2022-10-13T07:38:15.464Z,10.59
2022-10-13T07:38:55.541Z,10.73
2022-10-13T07:39:35.430Z,10.80
2022-10-13T07:40:16.498Z,10.83
2022-10-13T07:40:57.436Z,10.85
2022-10-13T07:41:37.532Z,10.87
2022-10-13T07:42:17.467Z,10.83
2022-10-13T07:42:57.588Z,10.80
2022-10-13T07:43:38.499Z,10.86
2022-10-13T07:44:18.757Z,10.92
2022-10-13T07:44:59.421Z,10.85
2022-10-13T07:45:39.709Z,10.90
2022-10-13T07:46:21.436Z,10.83
2022-10-13T07:47:01.553Z,10.99
2022-10-13T07:47:41.445Z,10.99
2022-10-13T07:49:03.425Z,11.05
2022-10-13T07:49:43.495Z,10.97
2022-10-13T07:50:24.449Z,11.09
2022-10-13T07:51:04.850Z,11.09
2022-10-13T07:51:45.410Z,11.19
2022-10-13T07:52:25.480Z,11.13
2022-10-13T07:53:06.478Z,11.23
2022-10-13T07:53:48.672Z,11.10
2022-10-13T07:54:29.406Z,11.11
2022-10-13T07:55:09.479Z,11.16
2022-10-13T07:55:49.441Z,11.22
2022-10-13T07:56:29.491Z,11.19
2022-10-13T07:57:10.434Z,11.25
2022-10-13T07:57:50.538Z,11.27
2022-10-13T07:58:30.520Z,11.33
2022-10-13T07:59:10.477Z,11.41
2022-10-13T07:59:51.396Z,11.41
2022-10-13T08:00:31.471Z,11.46
2022-10-13T08:02:39.074Z,11.53
2022-10-13T08:03:26.466Z,11.57
2022-10-13T08:04:07.449Z,11.39
2022-10-13T08:04:47.493Z,11.46
2022-10-13T08:05:27.401Z,11.50
2022-10-13T08:06:09.481Z,11.55
2022-10-13T08:06:49.418Z,11.56
2022-10-13T08:07:30.464Z,11.57
2022-10-13T08:08:10.404Z,11.57
2022-10-13T08:08:50.496Z,11.57
2022-10-13T08:09:31.447Z,11.64
2022-10-13T08:10:12.798Z,11.66
2022-10-13T08:11:39.479Z,11.75
2022-10-13T08:12:19.533Z,11.72
2022-10-13T08:13:00.505Z,11.68
2022-10-13T08:13:40.383Z,11.61
2022-10-13T08:14:20.523Z,11.64
2022-10-13T08:15:03.453Z,11.76
2022-10-13T08:15:48.597Z,11.77
2022-10-13T08:16:29.408Z,11.81
2022-10-13T08:17:09.459Z,11.75
2022-10-13T08:17:49.386Z,11.88
2022-10-13T08:18:30.505Z,11.80
2022-10-13T08:19:10.388Z,11.91
2022-10-13T08:19:50.468Z,11.94
2022-10-13T08:20:40.912Z,11.87
2022-10-13T08:21:57.168Z,11.94
2022-10-13T08:22:28.353Z,12.05
2022-10-13T08:23:08.505Z,12.05
2022-10-13T08:23:50.398Z,12.07
2022-10-13T08:24:30.731Z,11.98
2022-10-13T08:25:10.387Z,12.08
2022-10-13T08:25:51.408Z,12.09
2022-10-13T08:26:31.456Z,12.05
2022-10-13T08:27:05.107Z,12.15
2022-10-13T08:27:51.032Z,12.21
2022-10-13T08:28:29.547Z,12.20
2022-10-13T08:30:04.530Z,12.22
2022-10-13T08:30:38.585Z,12.15
2022-10-13T08:31:18.659Z,12.21
2022-10-13T08:32:00.703Z,12.27
2022-10-13T08:32:40.393Z,12.27
2022-10-13T08:33:21.450Z,12.28
2022-10-13T08:34:01.384Z,12.24
2022-10-13T08:34:42.517Z,12.25
2022-10-13T08:35:23.392Z,12.27
2022-10-13T08:36:03.473Z,12.36
2022-10-13T08:36:44.401Z,12.39
2022-10-13T08:37:26.446Z,12.43
2022-10-13T08:38:06.386Z,12.42
2022-10-13T08:38:46.455Z,12.34
2022-10-13T08:39:28.366Z,12.39
2022-10-13T08:40:09.442Z,12.40
2022-10-13T08:40:54.377Z,12.33
2022-10-13T08:41:51.522Z,12.46
2022-10-13T08:42:25.123Z,12.49
2022-10-13T08:43:12.394Z,12.50
2022-10-13T08:44:32.956Z,12.58
2022-10-13T08:45:40.888Z,12.49
2022-10-13T08:46:09.973Z,12.52
2022-10-13T08:47:14.464Z,12.62
2022-10-13T08:48:18.253Z,12.73
2022-10-13T08:49:05.352Z,12.74
2022-10-13T08:49:41.301Z,12.66
2022-10-13T08:50:33.348Z,12.83
2022-10-13T08:51:08.105Z,12.79
2022-10-13T08:51:56.401Z,12.79
2022-10-13T08:52:55.387Z,12.82
2022-10-13T08:53:40.454Z,12.80
2022-10-13T08:54:22.398Z,12.85
2022-10-13T08:55:03.451Z,12.83
2022-10-13T08:56:31.352Z,13.00
2022-10-13T08:57:12.413Z,12.93
2022-10-13T08:57:52.341Z,13.02
2022-10-13T08:58:40.461Z,13.05
2022-10-13T08:59:21.631Z,13.08
2022-10-13T08:59:55.101Z,13.03
2022-10-13T09:00:36.353Z,13.13
2022-10-13T09:01:18.473Z,13.15
2022-10-13T09:01:55.890Z,13.16
2022-10-13T09:02:38.348Z,13.12
2022-10-13T09:03:36.448Z,13.13
2022-10-13T09:04:33.387Z,13.25
2022-10-13T09:05:31.509Z,13.24
2022-10-13T09:06:38.368Z,13.28
2022-10-13T09:07:26.449Z,13.30
2022-10-13T09:08:06.370Z,13.37
2022-10-13T09:09:00.462Z,13.35
2022-10-13T09:09:40.398Z,13.33
2022-10-13T09:10:20.439Z,13.27
2022-10-13T09:11:00.357Z,13.33
2022-10-13T09:11:47.417Z,13.38
2022-10-13T09:12:31.361Z,13.39
2022-10-13T09:13:12.422Z,13.37
2022-10-13T09:13:52.336Z,13.48
2022-10-13T09:14:37.430Z,13.49
2022-10-13T09:15:19.384Z,13.49
2022-10-13T09:15:59.488Z,13.55
2022-10-13T09:16:45.336Z,13.54
2022-10-13T09:17:31.414Z,13.55
2022-10-13T09:18:19.332Z,13.65
2022-10-13T09:18:59.393Z,13.65
2022-10-13T09:19:42.376Z,13.68
2022-10-13T09:20:37.389Z,13.72
2022-10-13T09:21:26.119Z,13.73
2022-10-13T09:22:46.372Z,13.74
2022-10-13T09:23:23.050Z,13.80
2022-10-13T09:24:21.317Z,13.82
2022-10-13T09:25:07.194Z,13.94
2022-10-13T09:26:02.372Z,13.98